Time;durP1;ratioP1;P1;durP2;ratioP2;P2;SDS_P1;SDS_P2;PMS_P1;PMS_P2;Temp;Humidity;BMP_temperature;BMP_pressure;BME280_temperature;BME280_humidity;BME280_pressure;Samples;Min_cycle;Max_cycle;Signal;HPM_P1;HPM_P2
2022/01/20 00:00:40;;;;;;;29.00;14.20;;;;;;;17.39;63.60;99358.81;3179111;27;20043;-59
2022/01/20 00:02:20;;;;;;;23.25;15.57;;;;;;;17.38;63.71;99362.47;3178499;27;20055;-59
2022/01/20 00:03:55;;;;;;;27.50;13.95;;;;;;;17.37;63.76;99358.13;3176221;27;20047;-61
2022/01/20 00:05:38;;;;;;;26.45;15.55;;;;;;;17.37;63.81;99358.13;3177942;27;20551;-59
2022/01/20 00:07:33;;;;;;;23.67;14.82;;;;;;;17.36;63.88;99353.81;3176723;27;20057;-58
2022/01/20 00:09:24;;;;;;;22.80;13.32;;;;;;;17.34;64.11;99359.34;3176107;27;20047;-58
2022/01/20 00:26:02;;;;;;;26.92;14.82;;;;;;;17.27;64.16;99346.81;3175338;27;20043;-59
2022/01/20 00:27:37;;;;;;;28.80;15.02;;;;;;;17.25;64.26;99343.50;3176946;27;20059;-60
2022/01/20 00:29:23;;;;;;;21.38;12.68;;;;;;;17.24;64.24;99341.78;3176505;27;20506;-60
2022/01/20 00:31:05;;;;;;;24.38;13.27;;;;;;;17.22;64.24;99344.69;3178336;27;20790;-60
2022/01/20 00:32:47;;;;;;;20.20;13.73;;;;;;;17.22;64.29;99343.81;3177954;27;20046;-60
2022/01/20 00:34:30;;;;;;;15.93;12.43;;;;;;;17.19;64.40;99340.50;3176553;27;20047;-60
2022/01/20 00:38:01;;;;;;;24.83;13.65;;;;;;;17.17;64.42;99339.00;3137945;27;20060;-61
2022/01/20 00:39:32;;;;;;;23.48;13.63;;;;;;;17.14;64.45;99334.84;3177708;27;20054;-60
2022/01/20 00:41:14;;;;;;;19.67;11.95;;;;;;;17.14;64.53;99331.31;3175927;27;20058;-59
2022/01/20 00:42:46;;;;;;;;;;;;;;;17.13;64.58;99330.50;3174636;27;20039;-61
2022/01/20 00:44:17;;;;;;;21.88;12.02;;;;;;;17.12;64.60;99322.63;3176603;27;20620;-59
2022/01/20 00:45:52;;;;;;;19.27;12.70;;;;;;;17.11;64.65;99331.69;3174456;27;20146;-60
2022/01/20 00:47:26;;;;;;;17.63;11.40;;;;;;;17.10;64.53;99330.81;3178422;27;20296;-59
2022/01/20 00:48:57;;;;;;;19.00;12.90;;;;;;;17.10;64.53;99325.47;3177244;27;20055;-60
2022/01/20 00:50:31;;;;;;;20.93;12.20;;;;;;;17.10;64.62;99327.31;3175631;27;20076;-59
2022/01/20 00:52:03;;;;;;;18.77;12.27;;;;;;;17.08;64.73;99319.47;3172993;27;20293;-59
2022/01/20 00:53:35;;;;;;;21.38;11.98;;;;;;;17.08;64.81;99319.47;3178027;27;20076;-60
2022/01/20 00:55:10;;;;;;;22.40;10.02;;;;;;;17.08;64.86;99306.06;3177387;27;20066;-60
2022/01/20 00:56:41;;;;;;;21.17;12.15;;;;;;;17.07;64.91;99309.72;3178451;27;20035;-58
2022/01/20 00:58:16;;;;;;;22.15;12.32;;;;;;;17.06;64.90;99309.94;3177468;27;20044;-56
2022/01/20 00:59:47;;;;;;;18.63;11.57;;;;;;;17.04;64.87;99304.72;3176259;27;20047;-60
2022/01/20 01:01:19;;;;;;;26.33;11.73;;;;;;;17.03;65.17;99304.94;3175919;27;20084;-60
2022/01/20 01:03:00;;;;;;;20.20;11.60;;;;;;;17.03;65.20;99313.78;3177861;27;20047;-59
2022/01/20 01:04:32;;;;;;;17.17;11.18;;;;;;;17.02;65.22;99312.13;3177692;27;20552;-60
2022/01/20 01:06:19;;;;;;;20.17;11.88;;;;;;;17.00;65.43;99303.44;3177479;27;20035;-61
2022/01/20 01:07:54;;;;;;;18.08;10.95;;;;;;;16.98;65.54;99298.22;3176230;27;20043;-62
2022/01/20 01:09:29;;;;;;;17.58;10.77;;;;;;;16.98;65.27;99295.56;3176806;27;20043;-59
2022/01/20 01:11:01;;;;;;;21.80;12.02;;;;;;;16.98;65.34;99297.41;3178673;27;20750;-59
2022/01/20 01:12:39;;;;;;;19.52;10.93;;;;;;;16.98;65.25;99300.91;3179087;27;20493;-60
2022/01/20 01:14:12;;;;;;;19.15;11.32;;;;;;;16.98;65.43;99292.88;3177316;27;20118;-60
2022/01/20 01:15:48;;;;;;;21.17;10.93;;;;;;;16.96;65.38;99289.53;3178227;27;20046;-58
2022/01/20 01:21:14;;;;;;;20.17;10.65;;;;;;;16.92;65.46;99290.91;3160981;27;20130;-59
2022/01/20 01:22:46;;;;;;;18.10;11.90;;;;;;;16.92;65.43;99290.06;3176074;27;20622;-59
2022/01/20 01:24:19;;;;;;;21.08;10.43;;;;;;;16.90;65.54;99292.09;3176444;27;20444;-59
2022/01/20 01:25:51;;;;;;;22.42;12.13;;;;;;;16.89;65.44;99291.25;3177108;27;20080;-62
2022/01/20 01:27:27;;;;;;;21.17;11.68;;;;;;;16.88;65.35;99288.75;3174456;27;20435;-59
2022/01/20 01:29:03;;;;;;;17.75;10.25;;;;;;;16.87;65.44;99284.41;3176735;27;20389;-58
2022/01/20 01:32:45;;;;;;;19.65;10.00;;;;;;;16.87;65.05;99295.13;3137058;27;20402;-60
2022/01/20 01:34:22;;;;;;;18.52;10.07;;;;;;;16.87;65.23;99292.44;3132325;28;20045;-61
2022/01/20 01:35:58;;;;;;;16.13;9.90;;;;;;;16.86;65.32;99286.25;3132452;28;20045;-60
2022/01/20 01:38:23;;;;;;;17.90;10.98;;;;;;;16.87;65.32;99297.81;3132222;28;20045;-60
2022/01/20 01:39:26;;;;;;;14.68;10.25;;;;;;;16.86;65.35;99288.09;3128947;28;20789;-60
2022/01/20 01:40:58;;;;;;;17.15;9.93;;;;;;;16.84;65.42;99292.81;3128222;28;20056;-60
2022/01/20 01:42:36;;;;;;;14.93;10.43;;;;;;;16.83;65.40;99291.97;3131263;28;20550;-59
2022/01/20 01:44:09;;;;;;;13.23;9.32;;;;;;;16.83;65.33;99294.66;3136040;28;20721;-60
2022/01/20 01:45:42;;;;;;;19.05;9.82;;;;;;;16.81;65.33;99290.47;3131522;28;20509;-57
2022/01/20 01:47:13;;;;;;;12.77;8.43;;;;;;;16.79;65.33;99285.28;3131763;28;20057;-60
2022/01/20 01:48:48;;;;;;;17.50;10.90;;;;;;;16.79;65.33;99279.09;3133733;28;20044;-60
2022/01/20 01:50:20;;;;;;;19.58;10.45;;;;;;;16.78;65.40;99278.25;3133565;28;20095;-60
2022/01/20 01:51:54;;;;;;;13.75;9.20;;;;;;;16.78;65.33;99272.09;3128813;28;20049;-59
2022/01/20 01:53:28;;;;;;;16.33;9.18;;;;;;;16.75;65.33;99271.38;3132813;28;20049;-60
2022/01/20 01:55:01;;;;;;;12.55;9.20;;;;;;;16.75;65.26;99275.91;3132498;28;20065;-60
2022/01/20 01:56:36;;;;;;;13.27;9.00;;;;;;;16.74;65.35;99269.72;3125128;28;20396;-60
2022/01/20 01:58:06;;;;;;;17.92;9.70;;;;;;;16.72;65.30;99266.38;3129163;28;20066;-58
2022/01/20 01:59:52;;;;;;;12.55;8.43;;;;;;;16.72;65.24;99268.22;3133129;28;20083;-60
2022/01/20 02:01:26;;;;;;;16.20;9.35;;;;;;;16.72;65.29;99265.56;3130866;28;20128;-59
2022/01/20 02:02:58;;;;;;;16.00;9.98;;;;;;;16.71;65.35;99259.34;3130486;28;20392;-61
2022/01/20 02:04:34;;;;;;;13.05;9.23;;;;;;;16.70;65.04;99259.53;3130990;28;20049;-60
2022/01/20 02:06:25;;;;;;;13.98;10.00;;;;;;;16.69;65.14;99256.03;3126836;28;20048;-59
2022/01/20 02:19:15;;;;;;;11.77;8.18;;;;;;;16.61;65.28;99223.09;3132897;28;20045;-60
2022/01/20 02:20:48;;;;;;;13.77;8.30;;;;;;;16.62;65.36;99225.59;3133029;28;20590;-60
2022/01/20 02:22:20;;;;;;;15.38;8.55;;;;;;;16.61;65.23;99218.56;3128547;28;20049;-59
2022/01/20 02:23:52;;;;;;;13.90;8.85;;;;;;;16.62;65.08;99214.88;3131092;28;20044;-60
2022/01/20 02:25:27;;;;;;;13.50;8.70;;;;;;;16.61;64.99;99215.06;3127197;28;20049;-59
2022/01/20 02:26:59;;;;;;;12.93;7.78;;;;;;;16.60;65.11;99214.19;3129839;28;20056;-59
2022/01/20 02:28:34;;;;;;;11.80;8.07;;;;;;;16.60;65.09;99216.88;3133793;28;20442;-60
2022/01/20 02:30:07;;;;;;;11.50;7.85;;;;;;;16.58;65.16;99210.06;3134181;28;20683;-60
2022/01/20 02:31:39;;;;;;;16.02;7.25;;;;;;;16.59;65.02;99209.88;3130833;28;20049;-60
2022/01/20 02:33:14;;;;;;;12.20;8.43;;;;;;;16.58;64.93;99208.22;3132731;28;20467;-59
2022/01/20 02:34:46;;;;;;;11.95;8.25;;;;;;;16.56;64.78;99207.53;3131280;28;20698;-60
2022/01/20 02:36:19;;;;;;;15.15;7.47;;;;;;;16.57;65.28;99209.19;3132282;28;20052;-59
2022/01/20 02:37:57;;;;;;;14.93;7.47;;;;;;;16.56;65.33;99207.53;3131561;28;20075;-59
2022/01/20 02:39:57;;;;;;;12.65;6.95;;;;;;;16.54;65.42;99212.22;3134843;28;20059;-59
2022/01/20 02:45:10;;;;;;;12.23;6.80;;;;;;;16.50;65.34;99202.91;3108744;28;20092;-59
2022/01/20 02:46:44;;;;;;;8.80;6.53;;;;;;;16.48;65.23;99194.19;3125776;28;20711;-60
2022/01/20 02:48:16;;;;;;;14.80;8.50;;;;;;;16.49;65.22;99195.84;3127088;28;20083;-59
2022/01/20 02:49:48;;;;;;;16.73;7.40;;;;;;;16.47;65.13;99196.06;3123625;28;20144;-60
2022/01/20 02:51:25;;;;;;;12.38;6.82;;;;;;;16.48;65.03;99191.53;3123254;28;21262;-60
2022/01/20 02:53:02;;;;;;;14.05;7.22;;;;;;;16.47;65.01;99190.69;3119054;28;20045;-59
2022/01/20 02:54:34;;;;;;;11.32;6.97;;;;;;;16.46;65.14;99188.19;3122387;28;20475;-61
2022/01/20 02:56:06;;;;;;;9.82;7.18;;;;;;;16.47;65.23;99184.50;3124260;28;20052;-60
2022/01/20 02:57:40;;;;;;;15.05;7.35;;;;;;;16.47;65.35;99184.50;3118737;28;20053;-58
2022/01/20 02:59:13;;;;;;;13.77;7.25;;;;;;;16.46;65.47;99182.81;3121069;28;20053;-60
2022/01/20 03:00:45;;;;;;;9.95;6.22;;;;;;;16.46;65.42;99177.47;3125884;28;20049;-59
2022/01/20 03:02:20;;;;;;;11.05;7.32;;;;;;;16.43;65.31;99173.28;3124237;28;20049;-59
2022/01/20 03:03:51;;;;;;;11.50;7.72;;;;;;;16.44;65.56;99175.00;3122805;28;20063;-59
2022/01/20 03:05:23;;;;;;;15.63;7.32;;;;;;;16.43;65.49;99175.16;3122443;28;20119;-58
2022/01/20 03:06:57;;;;;;;15.85;7.93;;;;;;;16.42;65.11;99171.63;3121028;28;20056;-59
2022/01/20 03:08:29;;;;;;;15.63;7.05;;;;;;;16.41;64.99;99174.47;3122813;28;20060;-59
2022/01/20 03:10:00;;;;;;;12.98;7.30;;;;;;;16.39;65.06;99171.16;3122924;28;20049;-59
2022/01/20 03:11:35;;;;;;;11.30;6.22;;;;;;;16.39;65.02;99173.84;3121126;28;20414;-58
2022/01/20 03:13:10;;;;;;;12.82;7.30;;;;;;;16.38;64.99;99180.19;3121999;28;20079;-58
2022/01/20 03:14:43;;;;;;;12.18;7.22;;;;;;;16.37;64.91;99168.66;3123264;28;20049;-59
2022/01/20 03:16:14;;;;;;;17.33;7.05;;;;;;;16.37;64.84;99173.19;3124432;28;20136;-59
2022/01/20 03:17:47;;;;;;;8.88;6.53;;;;;;;16.36;64.81;99175.03;3119403;28;20107;-58
2022/01/20 03:19:19;;;;;;;11.35;6.43;;;;;;;16.35;64.83;99175.19;3119634;28;20049;-59
2022/01/20 03:20:50;;;;;;;10.05;6.35;;;;;;;16.36;64.87;99182.22;3122280;28;20052;-57
2022/01/20 03:22:24;;;;;;;12.07;7.05;;;;;;;16.34;64.67;99170.84;3126823;28;20052;-60
2022/01/20 03:23:56;;;;;;;9.65;6.30;;;;;;;16.33;64.82;99167.34;3124201;28;20044;-59
2022/01/20 03:25:28;;;;;;;11.40;6.50;;;;;;;16.33;64.80;99171.88;3119500;28;20060;-58
2022/01/20 03:27:00;;;;;;;9.98;5.55;;;;;;;16.31;64.69;99164.84;3121290;28;20045;-59
2022/01/20 03:28:32;;;;;;;9.75;7.00;;;;;;;16.30;64.71;99165.84;3118268;28;20060;-57
2022/01/20 03:30:04;;;;;;;9.90;6.63;;;;;;;16.30;64.64;99162.34;3123735;28;20661;-58
2022/01/20 03:31:38;;;;;;;9.50;5.38;;;;;;;16.28;64.80;99165.19;3119962;28;20061;-59
2022/01/20 03:33:19;;;;;;;11.13;6.70;;;;;;;16.28;64.98;99154.50;3125716;28;20052;-59
2022/01/20 03:34:53;;;;;;;7.90;5.65;;;;;;;16.29;64.76;99160.66;3124508;28;21711;-58
2022/01/20 03:36:25;;;;;;;10.70;6.43;;;;;;;16.28;64.80;99164.38;3122302;28;20170;-59
2022/01/20 03:37:58;;;;;;;12.40;7.20;;;;;;;16.27;64.63;99162.72;3120765;28;20556;-59
2022/01/20 03:39:30;;;;;;;10.35;5.95;;;;;;;16.26;64.63;99161.03;3121401;28;20045;-59
2022/01/20 03:41:02;;;;;;;10.15;7.10;;;;;;;16.26;64.59;99156.50;3127674;28;20048;-59
2022/01/20 03:42:34;;;;;;;9.98;6.85;;;;;;;16.25;64.65;99154.00;3125432;28;20044;-60
2022/01/20 03:44:07;;;;;;;8.05;6.43;;;;;;;16.24;64.61;99147.84;3125494;28;20056;-60
2022/01/20 03:45:39;;;;;;;8.80;6.28;;;;;;;16.24;64.75;99147.84;3121975;28;20471;-60
2022/01/20 03:47:11;;;;;;;10.77;5.53;;;;;;;16.23;64.70;99140.78;3123703;28;20720;-61
2022/01/20 03:48:51;;;;;;;10.93;6.70;;;;;;;16.24;64.79;99136.25;3122477;28;20057;-59
2022/01/20 03:52:17;;;;;;;10.55;5.90;;;;;;;16.20;64.95;99129.63;3121588;28;20049;-60
2022/01/20 03:53:52;;;;;;;12.18;6.45;;;;;;;16.18;65.09;99132.44;3123915;28;20465;-60
2022/01/20 03:55:23;;;;;;;7.03;5.50;;;;;;;16.19;65.16;99131.47;3119787;28;20049;-60
2022/01/20 03:56:55;;;;;;;14.15;5.90;;;;;;;16.19;65.29;99122.59;3126339;28;20053;-60
2022/01/20 03:58:29;;;;;;;12.40;6.20;;;;;;;16.19;65.32;99118.06;3121647;28;20499;-60
2022/01/20 04:00:01;;;;;;;10.30;5.60;;;;;;;16.20;65.28;99114.38;3114968;28;20515;-60
2022/01/20 04:01:36;;;;;;;10.25;6.10;;;;;;;16.22;65.19;99111.53;3116817;28;20103;-61
2022/01/20 04:03:11;;;;;;;9.20;5.20;;;;;;;16.22;65.26;99115.03;3119526;28;20060;-61
2022/01/20 04:04:42;;;;;;;10.23;5.57;;;;;;;16.23;65.21;99107.84;3119300;28;20407;-60
2022/01/20 04:06:15;;;;;;;8.00;5.63;;;;;;;16.25;65.16;99106.66;3124348;28;20174;-60
2022/01/20 04:07:47;;;;;;;10.23;5.70;;;;;;;16.23;65.35;99111.34;3124352;28;20060;-60
2022/01/20 04:09:20;;;;;;;8.85;5.03;;;;;;;16.25;65.36;99113.88;3121903;28;20048;-60
2022/01/20 04:10:52;;;;;;;8.27;5.93;;;;;;;16.23;65.45;99108.66;3123266;28;20052;-60
2022/01/20 04:12:25;;;;;;;9.50;6.05;;;;;;;16.26;65.43;99112.84;3126040;28;20053;-59
2022/01/20 04:13:58;;;;;;;9.15;5.35;;;;;;;16.24;65.37;99114.84;3121637;28;20052;-59
2022/01/20 04:15:37;;;;;;;8.35;6.00;;;;;;;16.23;65.30;99108.66;3120138;28;20045;-58
2022/01/20 04:17:15;;;;;;;9.75;5.45;;;;;;;16.25;65.51;99112.00;3126075;28;20053;-59
2022/01/20 04:18:54;;;;;;;10.45;6.30;;;;;;;16.23;65.53;99108.66;3127159;28;20135;-60
2022/01/20 04:20:26;;;;;;;10.35;5.22;;;;;;;16.25;65.63;99111.19;3123246;28;20045;-59
2022/01/20 04:22:01;;;;;;;6.57;4.75;;;;;;;16.25;65.44;99111.19;3120407;28;20396;-60
2022/01/20 04:23:33;;;;;;;8.80;5.55;;;;;;;16.24;65.44;99109.50;3124949;28;20140;-60
2022/01/20 04:25:07;;;;;;;6.90;4.28;;;;;;;16.24;65.39;99107.69;3123606;28;20404;-60
2022/01/20 04:26:43;;;;;;;12.48;5.63;;;;;;;16.24;65.54;99109.50;3125765;28;20044;-59
2022/01/20 04:28:15;;;;;;;7.45;5.18;;;;;;;16.23;65.50;99113.19;3124070;28;20067;-59
2022/01/20 04:29:49;;;;;;;7.90;4.63;;;;;;;16.23;65.34;99114.03;3123536;28;20053;-60
2022/01/20 04:31:24;;;;;;;9.10;5.00;;;;;;;16.22;65.38;99115.03;3119521;28;20056;-59
2022/01/20 04:32:56;;;;;;;8.10;5.30;;;;;;;16.22;65.54;99112.38;3125660;28;20041;-59
2022/01/20 04:34:28;;;;;;;8.82;5.03;;;;;;;16.22;65.43;99128.44;3124789;28;20058;-59
2022/01/20 04:36:00;;;;;;;7.65;5.53;;;;;;;16.21;65.44;99125.91;3124384;28;20061;-58
2022/01/20 04:37:32;;;;;;;7.35;4.65;;;;;;;16.21;65.46;99129.41;3122422;28;20697;-59
2022/01/20 04:39:06;;;;;;;6.82;5.57;;;;;;;16.21;65.56;99132.09;3127274;28;20056;-61
2022/01/20 04:40:42;;;;;;;7.38;4.32;;;;;;;16.21;65.35;99125.91;3121741;28;20056;-60
2022/01/20 04:42:14;;;;;;;7.57;5.68;;;;;;;16.20;65.28;99122.41;3121395;28;20118;-60
2022/01/20 04:43:45;;;;;;;6.43;4.50;;;;;;;16.20;65.55;99133.13;3121350;28;20040;-60
2022/01/20 04:45:23;;;;;;;11.25;4.63;;;;;;;16.20;65.40;99130.44;3122947;28;20053;-60
2022/01/20 04:47:01;;;;;;;7.68;4.88;;;;;;;16.20;65.55;99127.75;3124053;28;20072;-59
2022/01/20 04:48:46;;;;;;;8.38;4.68;;;;;;;16.22;65.40;99119.56;3118661;28;20053;-60
2022/01/20 04:57:39;;;;;;;7.18;5.38;;;;;;;16.17;65.55;99106.72;3122984;28;20044;-57
2022/01/20 04:59:11;;;;;;;12.00;5.03;;;;;;;16.18;65.54;99118.25;3122781;28;20139;-55
2022/01/20 05:00:42;;;;;;;6.32;4.55;;;;;;;16.17;65.58;99117.41;3123118;28;20414;-56
2022/01/20 05:02:19;;;;;;;6.60;5.47;;;;;;;16.15;65.65;99115.91;3118361;28;20052;-56
2022/01/20 05:03:51;;;;;;;8.27;4.65;;;;;;;16.15;65.53;99111.41;3123781;28;20053;-56
2022/01/20 05:05:25;;;;;;;7.43;5.07;;;;;;;16.15;65.56;99106.03;3119712;28;20049;-57
2022/01/20 05:06:58;;;;;;;7.05;4.70;;;;;;;16.14;65.61;99109.75;3123516;28;20136;-57
2022/01/20 05:08:31;;;;;;;10.43;4.65;;;;;;;16.17;65.63;99109.38;3123451;28;21035;-59
2022/01/20 05:10:07;;;;;;;6.55;4.65;;;;;;;16.21;65.75;99108.00;3120843;28;20041;-59
2022/01/20 05:11:48;;;;;;;6.25;4.90;;;;;;;16.26;65.59;99110.16;3120983;28;20857;-59
2022/01/20 05:13:26;;;;;;;7.18;4.53;;;;;;;16.30;65.80;99108.81;3122581;28;20049;-57
2022/01/20 05:15:01;;;;;;;7.47;5.43;;;;;;;16.37;65.68;99103.56;3119049;28;20140;-58
2022/01/20 05:16:34;;;;;;;7.15;4.40;;;;;;;16.42;65.44;99101.22;3120477;28;20106;-58
2022/01/20 05:18:08;;;;;;;6.97;4.10;;;;;;;16.48;65.16;99089.78;3126316;28;20050;-58
2022/01/20 05:19:39;;;;;;;8.93;4.65;;;;;;;16.53;65.23;99093.59;3125135;28;20049;-58
2022/01/20 05:21:11;;;;;;;6.93;4.80;;;;;;;16.59;64.90;99092.03;3128432;28;20041;-57
2022/01/20 05:22:45;;;;;;;8.50;4.10;;;;;;;16.65;64.69;99087.81;3121852;28;20049;-58
2022/01/20 05:24:17;;;;;;;6.72;4.35;;;;;;;16.69;64.88;99086.44;3120453;28;20049;-58
2022/01/20 05:25:51;;;;;;;6.60;3.97;;;;;;;16.72;64.68;99084.22;3124712;28;20163;-58
2022/01/20 05:27:24;;;;;;;5.85;3.60;;;;;;;16.78;64.54;99089.91;3122127;28;20061;-59
2022/01/20 05:28:56;;;;;;;7.00;5.00;;;;;;;16.81;64.44;99084.19;3123555;28;20087;-58
2022/01/20 05:30:28;;;;;;;6.53;3.95;;;;;;;16.86;64.07;99092.53;3117038;28;20054;-58
2022/01/20 05:32:00;;;;;;;6.80;4.43;;;;;;;16.88;64.35;99098.50;3124915;28;20116;-59
2022/01/20 05:33:31;;;;;;;9.13;5.97;;;;;;;16.90;64.12;99093.81;3125000;28;20049;-58
2022/01/20 05:35:06;;;;;;;8.82;5.03;;;;;;;16.94;64.14;99092.47;3120754;28;20063;-59
2022/01/20 05:36:40;;;;;;;7.15;4.28;;;;;;;16.97;64.14;99089.41;3120038;28;20052;-57
2022/01/20 05:38:13;;;;;;;6.82;3.67;;;;;;;16.99;64.09;99098.09;3121839;28;20049;-58
2022/01/20 05:39:45;;;;;;;4.82;3.67;;;;;;;17.02;63.96;99091.53;3123765;28;20143;-57
2022/01/20 05:41:22;;;;;;;6.25;3.58;;;;;;;17.04;64.02;99095.69;3121215;28;20458;-58
2022/01/20 05:42:56;;;;;;;8.13;4.22;;;;;;;17.07;63.91;99087.28;3124024;28;20056;-58
2022/01/20 05:44:28;;;;;;;8.13;5.25;;;;;;;17.10;63.75;99080.72;3122104;28;20116;-58
2022/01/20 05:46:02;;;;;;;5.88;4.55;;;;;;;17.13;64.03;99083.03;3123101;28;20076;-58
2022/01/20 05:47:37;;;;;;;6.38;4.07;;;;;;;17.17;63.50;99084.34;3119900;28;20053;-58
2022/01/20 05:49:10;;;;;;;5.72;3.58;;;;;;;17.20;63.61;99090.19;3122163;28;20046;-58
2022/01/20 05:50:42;;;;;;;6.57;3.97;;;;;;;17.23;63.32;99088.16;3123615;28;20053;-58
2022/01/20 05:52:15;;;;;;;4.97;3.50;;;;;;;17.27;63.50;99092.94;3123082;28;20045;-58
2022/01/20 05:53:50;;;;;;;5.47;4.22;;;;;;;17.30;63.58;99091.75;3125478;28;20041;-58
2022/01/20 05:55:21;;;;;;;6.07;3.63;;;;;;;17.33;63.61;99089.56;3122651;28;20111;-57
2022/01/20 05:56:53;;;;;;;7.28;3.65;;;;;;;17.36;63.46;99094.53;3122931;28;20045;-58
2022/01/20 05:58:27;;;;;;;5.55;3.80;;;;;;;17.38;63.01;99097.88;3116909;28;20049;-58
2022/01/20 05:59:58;;;;;;;4.65;3.63;;;;;;;17.41;63.06;99118.09;3121514;28;20076;-58
2022/01/20 06:01:36;;;;;;;4.68;3.80;;;;;;;17.45;63.03;99135.50;3125175;28;20051;-58
2022/01/20 06:04:57;;;;;;;4.75;3.40;;;;;;;17.54;63.01;99120.97;3123271;28;20124;-57
2022/01/20 06:06:29;;;;;;;7.22;4.00;;;;;;;17.55;62.92;99133.41;3119102;28;20048;-58
2022/01/20 06:08:04;;;;;;;8.02;4.88;;;;;;;17.59;63.57;99129.31;3127011;28;20053;-52
2022/01/20 06:09:36;;;;;;;5.93;4.22;;;;;;;17.62;63.19;99134.31;3120806;28;20053;-53
2022/01/20 06:11:07;;;;;;;6.50;3.58;;;;;;;17.63;63.21;99130.63;3123867;28;20054;-54
2022/01/20 06:12:39;;;;;;;8.75;3.92;;;;;;;17.63;63.34;99136.00;3125040;28;20041;-53
2022/01/20 06:14:13;;;;;;;8.10;3.92;;;;;;;17.64;63.47;99137.63;3123863;28;20044;-55
2022/01/20 06:15:45;;;;;;;6.38;4.68;;;;;;;17.69;63.71;99152.34;3116681;28;20079;-54
2022/01/20 06:17:17;;;;;;;9.50;3.97;;;;;;;17.74;63.18;99149.94;3125178;28;20049;-49
2022/01/20 06:18:49;;;;;;;8.25;4.13;;;;;;;17.80;63.26;99130.44;3122200;28;20056;-48
2022/01/20 06:20:21;;;;;;;8.23;3.72;;;;;;;17.84;63.09;99134.44;3119251;28;20057;-48
2022/01/20 06:21:53;;;;;;;11.02;4.70;;;;;;;17.87;63.09;99147.47;3125350;28;20053;-49
2022/01/20 06:23:25;;;;;;;9.57;4.15;;;;;;;17.92;62.70;99146.91;3123588;28;20045;-51
2022/01/20 06:24:57;;;;;;;14.15;4.05;;;;;;;17.94;62.55;99145.72;3122365;28;20063;-49
2022/01/20 06:26:31;;;;;;;23.55;3.80;;;;;;;17.94;62.46;99143.03;3121139;28;20053;-52
2022/01/20 06:28:05;;;;;;;8.88;4.15;;;;;;;17.95;61.64;99120.53;3127663;28;20052;-53
2022/01/20 06:29:38;;;;;;;8.10;4.25;;;;;;;17.97;61.11;99136.44;3123776;28;20079;-54
2022/01/20 06:31:10;;;;;;;8.30;3.92;;;;;;;18.00;60.71;99125.34;3125667;28;20060;-51
2022/01/20 06:32:42;;;;;;;8.07;3.40;;;;;;;18.00;60.50;99133.41;3123924;28;20060;-49
2022/01/20 06:34:14;;;;;;;8.32;4.18;;;;;;;18.01;60.51;99133.19;3123513;28;20045;-55
2022/01/20 06:35:46;;;;;;;11.00;4.60;;;;;;;18.04;60.39;99124.75;3122819;28;20045;-50
2022/01/20 06:37:21;;;;;;;11.13;3.65;;;;;;;18.06;60.34;99133.47;3119367;28;20264;-50
2022/01/20 06:38:54;;;;;;;4.97;3.40;;;;;;;18.12;60.31;99134.56;3121773;28;20053;-55
2022/01/20 06:40:30;;;;;;;4.45;3.47;;;;;;;18.18;60.33;99133.81;3122533;28;20045;-52
2022/01/20 06:42:01;;;;;;;8.63;3.15;;;;;;;18.24;60.33;99134.91;3113572;28;20051;-52
2022/01/20 06:43:35;;;;;;;13.40;3.72;;;;;;;18.26;60.17;99140.94;3116354;28;20049;-51
2022/01/20 06:45:12;;;;;;;5.28;3.13;;;;;;;18.34;60.16;99134.63;3120489;28;20049;-54
2022/01/20 06:46:44;;;;;;;11.98;3.75;;;;;;;18.31;60.32;99149.25;3125376;28;20057;-53
2022/01/20 06:48:18;;;;;;;10.07;3.08;;;;;;;18.32;59.97;99153.59;3122656;28;20055;-51
2022/01/20 06:49:50;;;;;;;15.05;4.40;;;;;;;18.34;60.50;99153.41;3121675;28;20554;-53
2022/01/20 06:51:21;;;;;;;16.73;4.13;;;;;;;18.33;60.23;99154.41;3117705;28;20055;-53
2022/01/20 06:52:53;;;;;;;10.55;3.42;;;;;;;18.38;60.00;99160.88;3122241;28;20053;-56
2022/01/20 06:54:26;;;;;;;14.68;3.55;;;;;;;18.34;59.86;99148.88;3098322;28;20060;-53
2022/01/20 06:55:57;;;;;;;13.38;3.00;;;;;;;18.33;59.94;99155.28;3110490;28;20404;-52
2022/01/20 06:57:29;;;;;;;14.63;4.38;;;;;;;18.31;59.78;99149.25;3112204;28;20042;-53
2022/01/20 06:59:03;;;;;;;10.13;3.55;;;;;;;18.30;59.66;99150.25;3119757;28;20049;-51
2022/01/20 07:00:36;;;;;;;8.00;2.72;;;;;;;18.29;59.70;99144.06;3123396;28;20056;-51
2022/01/20 07:02:11;;;;;;;7.00;3.15;;;;;;;18.29;59.54;99144.06;3119950;28;20563;-54
2022/01/20 07:03:43;;;;;;;4.38;2.22;;;;;;;18.29;59.59;99138.69;3120759;28;20045;-51
2022/01/20 07:05:18;;;;;;;9.57;4.13;;;;;;;18.30;59.31;99134.16;3114702;28;20065;-49
2022/01/20 07:06:53;;;;;;;4.90;2.97;;;;;;;18.29;59.47;99136.00;3120343;28;20049;-53
2022/01/20 07:08:24;;;;;;;5.28;3.53;;;;;;;18.29;59.42;99137.88;3117028;28;20056;-53
2022/01/20 07:09:56;;;;;;;8.77;3.13;;;;;;;18.28;59.36;99136.22;3112736;28;20053;-50
2022/01/20 07:11:31;;;;;;;15.38;2.90;;;;;;;18.29;59.26;99144.06;3117010;28;20053;-51
2022/01/20 07:13:03;;;;;;;6.20;2.45;;;;;;;18.28;59.24;99144.25;3113912;28;20061;-50
2022/01/20 07:14:35;;;;;;;5.15;2.92;;;;;;;18.28;59.15;99133.53;3122123;28;20057;-50
2022/01/20 07:16:08;;;;;;;4.60;3.60;;;;;;;18.27;59.13;99146.09;3112604;28;20713;-52
2022/01/20 07:17:40;;;;;;;4.35;2.85;;;;;;;18.27;59.14;99150.63;3116135;28;20053;-50
2022/01/20 07:19:15;;;;;;;7.90;2.83;;;;;;;18.26;59.29;99138.25;3119019;28;20102;-52
2022/01/20 07:20:47;;;;;;;3.53;2.75;;;;;;;18.26;59.09;99140.94;3115778;28;20052;-54
2022/01/20 07:22:22;;;;;;;8.40;3.33;;;;;;;18.25;59.24;99148.16;3117048;28;20057;-51
2022/01/20 07:23:54;;;;;;;7.95;2.97;;;;;;;18.24;59.09;99151.84;3117148;28;20046;-51
2022/01/20 07:25:26;;;;;;;9.40;2.72;;;;;;;18.25;59.24;99158.06;3119309;28;20049;-50
2022/01/20 07:26:58;;;;;;;6.53;3.15;;;;;;;18.25;59.22;99155.38;3119222;28;20053;-53
2022/01/20 07:28:30;;;;;;;6.30;2.65;;;;;;;18.24;59.12;99164.44;3118048;28;20108;-49
2022/01/20 07:30:02;;;;;;;4.13;3.00;;;;;;;18.23;59.13;99166.31;3111799;28;20579;-51
2022/01/20 07:31:35;;;;;;;8.82;2.90;;;;;;;18.23;59.15;99163.63;3116543;28;20099;-53
2022/01/20 07:33:08;;;;;;;5.68;2.40;;;;;;;18.21;59.25;99165.66;3119103;28;20048;-53
2022/01/20 07:34:42;;;;;;;5.28;2.45;;;;;;;18.21;59.05;99172.88;3121605;28;20122;-49
2022/01/20 07:36:17;;;;;;;4.32;2.63;;;;;;;18.21;58.88;99167.50;3116870;28;20053;-52
2022/01/20 07:37:49;;;;;;;7.45;3.03;;;;;;;18.20;59.00;99169.38;3115464;28;20060;-50
2022/01/20 07:39:21;;;;;;;3.47;2.60;;;;;;;18.19;59.00;99166.84;3113167;28;20112;-52
2022/01/20 07:40:53;;;;;;;7.00;2.60;;;;;;;18.20;58.96;99155.94;3111330;28;20045;-54
2022/01/20 07:42:28;;;;;;;5.45;3.13;;;;;;;18.19;58.94;99164.16;3114756;28;20940;-48
2022/01/20 07:44:02;;;;;;;5.40;2.42;;;;;;;18.19;58.89;99164.16;3114925;28;20072;-53
2022/01/20 07:45:34;;;;;;;5.18;3.00;;;;;;;18.17;58.96;99167.06;3110302;28;20563;-51
2022/01/20 07:47:07;;;;;;;3.72;2.42;;;;;;;18.17;58.86;99169.75;3119579;28;20049;-52
2022/01/20 07:48:39;;;;;;;4.18;3.10;;;;;;;18.15;58.94;99162.91;3116860;28;20056;-51
2022/01/20 07:50:11;;;;;;;8.32;2.83;;;;;;;18.16;59.04;99168.06;3112861;28;20709;-51
2022/01/20 07:51:44;;;;;;;5.18;3.25;;;;;;;18.14;59.06;99167.44;3115395;28;20048;-52
2022/01/20 07:53:16;;;;;;;5.72;2.33;;;;;;;18.14;59.07;99167.44;3120996;28;20144;-51
2022/01/20 07:54:47;;;;;;;5.38;2.67;;;;;;;18.13;59.13;99172.97;3120372;28;20044;-52
2022/01/20 07:56:19;;;;;;;4.93;3.13;;;;;;;18.11;59.24;99173.19;3118853;28;20061;-52
2022/01/20 07:57:53;;;;;;;4.20;2.38;;;;;;;18.11;59.03;99173.19;3115013;28;20044;-51
2022/01/20 07:59:26;;;;;;;5.95;2.88;;;;;;;18.09;59.02;99173.34;3113744;28;20060;-51
2022/01/20 08:00:58;;;;;;;4.72;2.72;;;;;;;18.09;59.01;99175.22;3114423;28;20103;-54
2022/01/20 08:02:34;;;;;;;5.40;2.40;;;;;;;18.06;59.04;99176.41;3112144;28;21162;-50
2022/01/20 08:04:08;;;;;;;3.35;2.67;;;;;;;18.04;59.24;99178.44;3121261;28;20067;-52
2022/01/20 08:05:43;;;;;;;3.20;2.47;;;;;;;18.03;59.07;99168.75;3111962;28;20046;-54
2022/01/20 08:07:19;;;;;;;3.17;2.85;;;;;;;18.03;59.07;99179.47;3116576;28;21892;-51
2022/01/20 08:08:51;;;;;;;2.88;2.20;;;;;;;18.03;59.15;99174.13;3122086;28;20059;-53